sensor_id;sensor_type;location;lat;lon;timestamp;pressure;altitude;pressure_sealevel;temperature;humidity
75555;BME280;66087;53.126;17.960;2023-06-10T00:01:47;100872.86;;;20.00;54.63
75555;BME280;66087;53.126;17.960;2023-06-10T00:04:15;100871.90;;;19.94;54.64
75555;BME280;66087;53.126;17.960;2023-06-10T00:06:44;100875.06;;;19.90;54.79
75555;BME280;66087;53.126;17.960;2023-06-10T00:09:14;100874.01;;;19.88;54.84
75555;BME280;66087;53.126;17.960;2023-06-10T00:11:44;100879.27;;;19.85;54.46
75555;BME280;66087;53.126;17.960;2023-06-10T00:14:11;100879.56;;;19.80;54.84
75555;BME280;66087;53.126;17.960;2023-06-10T00:16:38;100825.82;;;19.36;54.61
75555;BME280;66087;53.126;17.960;2023-06-10T00:19:05;100886.02;;;19.74;54.69
75555;BME280;66087;53.126;17.960;2023-06-10T00:21:40;100881.70;;;19.73;54.83
75555;BME280;66087;53.126;17.960;2023-06-10T00:24:08;100882.91;;;19.71;55.35
75555;BME280;66087;53.126;17.960;2023-06-10T00:26:52;100882.40;;;19.67;54.65
75555;BME280;66087;53.126;17.960;2023-06-10T00:29:18;100883.64;;;19.64;55.20
75555;BME280;66087;53.126;17.960;2023-06-10T00:31:52;100884.28;;;19.64;54.71
75555;BME280;66087;53.126;17.960;2023-06-10T00:34:24;100885.59;;;19.68;54.91
75555;BME280;66087;53.126;17.960;2023-06-10T00:36:57;100884.29;;;19.69;54.67
75555;BME280;66087;53.126;17.960;2023-06-10T00:39:24;100884.56;;;19.69;54.80
75555;BME280;66087;53.126;17.960;2023-06-10T00:42:00;100890.81;;;19.71;54.63
75555;BME280;66087;53.126;17.960;2023-06-10T00:44:27;100889.05;;;19.73;54.44
75555;BME280;66087;53.126;17.960;2023-06-10T00:46:57;100890.18;;;19.76;54.45
75555;BME280;66087;53.126;17.960;2023-06-10T00:49:26;100895.15;;;19.79;54.37
75555;BME280;66087;53.126;17.960;2023-06-10T00:51:56;100895.90;;;19.82;54.46
75555;BME280;66087;53.126;17.960;2023-06-10T00:54:25;100902.20;;;19.84;54.29
75555;BME280;66087;53.126;17.960;2023-06-10T00:56:53;100905.36;;;19.85;54.20
75555;BME280;66087;53.126;17.960;2023-06-10T00:59:23;100908.39;;;19.84;54.17
75555;BME280;66087;53.126;17.960;2023-06-10T01:01:53;100912.98;;;19.87;54.09
75555;BME280;66087;53.126;17.960;2023-06-10T01:04:20;100910.30;;;19.93;54.12
75555;BME280;66087;53.126;17.960;2023-06-10T01:07:12;100913.78;;;19.94;53.92
75555;BME280;66087;53.126;17.960;2023-06-10T01:10:12;100911.55;;;19.91;54.04
75555;BME280;66087;53.126;17.960;2023-06-10T01:12:46;100877.89;;;19.67;54.02
75555;BME280;66087;53.126;17.960;2023-06-10T01:15:17;100914.02;;;19.94;53.88
75555;BME280;66087;53.126;17.960;2023-06-10T01:18:03;100893.17;;;19.78;53.94
75555;BME280;66087;53.126;17.960;2023-06-10T01:20:37;100915.34;;;19.89;53.68
75555;BME280;66087;53.126;17.960;2023-06-10T01:23:15;100916.57;;;19.88;53.64
75555;BME280;66087;53.126;17.960;2023-06-10T01:26:05;100914.80;;;19.88;53.66
75555;BME280;66087;53.126;17.960;2023-06-10T01:28:40;100914.73;;;19.87;53.81
75555;BME280;66087;53.126;17.960;2023-06-10T01:31:21;100918.89;;;19.89;53.37
75555;BME280;66087;53.126;17.960;2023-06-10T01:33:53;100917.27;;;19.92;53.51
75555;BME280;66087;53.126;17.960;2023-06-10T01:36:21;100919.04;;;19.93;53.18
75555;BME280;66087;53.126;17.960;2023-06-10T01:38:53;100919.11;;;19.90;53.53
75555;BME280;66087;53.126;17.960;2023-06-10T01:41:20;100921.54;;;19.90;53.30
75555;BME280;66087;53.126;17.960;2023-06-10T01:43:51;100925.20;;;19.94;53.31
75555;BME280;66087;53.126;17.960;2023-06-10T01:46:18;100926.44;;;19.89;53.12
75555;BME280;66087;53.126;17.960;2023-06-10T01:48:49;100930.48;;;19.91;53.20
75555;BME280;66087;53.126;17.960;2023-06-10T01:51:19;100908.04;;;19.72;53.18
75555;BME280;66087;53.126;17.960;2023-06-10T01:53:46;100940.19;;;19.86;53.18
75555;BME280;66087;53.126;17.960;2023-06-10T01:56:14;100941.09;;;19.81;53.18
75555;BME280;66087;53.126;17.960;2023-06-10T01:58:47;100942.07;;;19.80;53.25
75555;BME280;66087;53.126;17.960;2023-06-10T02:01:15;100942.52;;;19.81;53.10
75555;BME280;66087;53.126;17.960;2023-06-10T02:03:41;100939.67;;;19.76;53.29
75555;BME280;66087;53.126;17.960;2023-06-10T02:06:12;100944.88;;;19.76;53.43
75555;BME280;66087;53.126;17.960;2023-06-10T02:08:40;100898.19;;;19.36;53.23
75555;BME280;66087;53.126;17.960;2023-06-10T02:11:07;100948.17;;;19.71;53.40
75555;BME280;66087;53.126;17.960;2023-06-10T02:13:46;100956.82;;;19.70;53.17
75555;BME280;66087;53.126;17.960;2023-06-10T02:16:13;100959.10;;;19.67;53.43
75555;BME280;66087;53.126;17.960;2023-06-10T02:18:43;100961.43;;;19.64;53.56
75555;BME280;66087;53.126;17.960;2023-06-10T02:21:24;100958.09;;;19.61;53.45
75555;BME280;66087;53.126;17.960;2023-06-10T02:23:51;100957.81;;;19.61;53.46
75555;BME280;66087;53.126;17.960;2023-06-10T02:26:38;100952.89;;;19.56;53.51
75555;BME280;66087;53.126;17.960;2023-06-10T02:29:12;100956.96;;;19.57;53.32
75555;BME280;66087;53.126;17.960;2023-06-10T02:31:41;100957.85;;;19.56;53.50
75555;BME280;66087;53.126;17.960;2023-06-10T02:34:08;100955.38;;;19.57;53.30
75555;BME280;66087;53.126;17.960;2023-06-10T02:36:35;100953.42;;;19.55;53.60
75555;BME280;66087;53.126;17.960;2023-06-10T02:39:05;100950.80;;;19.49;53.71
75555;BME280;66087;53.126;17.960;2023-06-10T02:41:32;100952.00;;;19.46;53.39
75555;BME280;66087;53.126;17.960;2023-06-10T02:44:04;100957.67;;;19.51;53.22
75555;BME280;66087;53.126;17.960;2023-06-10T02:46:32;100964.42;;;19.56;53.02
75555;BME280;66087;53.126;17.960;2023-06-10T02:49:01;100959.36;;;19.54;52.89
75555;BME280;66087;53.126;17.960;2023-06-10T02:51:30;100975.71;;;19.62;53.00
75555;BME280;66087;53.126;17.960;2023-06-10T02:54:00;100978.15;;;19.61;52.86
75555;BME280;66087;53.126;17.960;2023-06-10T02:56:26;100977.79;;;19.58;52.90
75555;BME280;66087;53.126;17.960;2023-06-10T02:58:54;100982.14;;;19.58;53.07
75555;BME280;66087;53.126;17.960;2023-06-10T03:01:23;100991.36;;;19.58;52.90
75555;BME280;66087;53.126;17.960;2023-06-10T03:03:59;100996.14;;;19.55;53.31
75555;BME280;66087;53.126;17.960;2023-06-10T03:06:46;101003.38;;;19.50;53.20
75555;BME280;66087;53.126;17.960;2023-06-10T03:09:19;101006.58;;;19.45;53.22
75555;BME280;66087;53.126;17.960;2023-06-10T03:11:54;101017.23;;;19.47;53.41
75555;BME280;66087;53.126;17.960;2023-06-10T03:14:41;101018.77;;;19.46;53.17
75555;BME280;66087;53.126;17.960;2023-06-10T03:17:08;101020.54;;;19.47;53.45
75555;BME280;66087;53.126;17.960;2023-06-10T03:19:45;101022.29;;;19.45;53.49
75555;BME280;66087;53.126;17.960;2023-06-10T03:22:17;101023.99;;;19.39;53.73
75555;BME280;66087;53.126;17.960;2023-06-10T03:24:50;101027.59;;;19.38;53.64
75555;BME280;66087;53.126;17.960;2023-06-10T03:27:19;101028.02;;;19.39;53.68
75555;BME280;66087;53.126;17.960;2023-06-10T03:29:55;101030.73;;;19.38;53.70
75555;BME280;66087;53.126;17.960;2023-06-10T03:32:22;101032.90;;;19.39;53.54
75555;BME280;66087;53.126;17.960;2023-06-10T03:34:49;101032.46;;;19.44;53.58
75555;BME280;66087;53.126;17.960;2023-06-10T03:37:50;101037.45;;;19.49;53.44
75555;BME280;66087;53.126;17.960;2023-06-10T03:40:26;101044.08;;;19.54;53.13
75555;BME280;66087;53.126;17.960;2023-06-10T03:42:55;101048.95;;;19.62;53.22
75555;BME280;66087;53.126;17.960;2023-06-10T03:45:22;101047.02;;;19.66;53.01
75555;BME280;66087;53.126;17.960;2023-06-10T03:47:54;101053.60;;;19.74;52.70
75555;BME280;66087;53.126;17.960;2023-06-10T03:50:23;101055.03;;;19.82;52.51
75555;BME280;66087;53.126;17.960;2023-06-10T03:52:52;101054.75;;;19.84;52.46
75555;BME280;66087;53.126;17.960;2023-06-10T03:55:22;101060.29;;;19.86;52.41
75555;BME280;66087;53.126;17.960;2023-06-10T03:57:51;101050.53;;;19.80;52.13
75555;BME280;66087;53.126;17.960;2023-06-10T04:00:18;101038.70;;;19.71;51.94
75555;BME280;66087;53.126;17.960;2023-06-10T04:02:50;101068.21;;;19.86;51.63
75555;BME280;66087;53.126;17.960;2023-06-10T04:05:26;101075.93;;;19.94;51.63
75555;BME280;66087;53.126;17.960;2023-06-10T04:07:55;101076.75;;;19.98;51.11
75555;BME280;66087;53.126;17.960;2023-06-10T04:10:23;101077.06;;;19.97;50.80
75555;BME280;66087;53.126;17.960;2023-06-10T04:12:51;101081.76;;;19.96;50.77
75555;BME280;66087;53.126;17.960;2023-06-10T04:15:22;101078.36;;;19.94;50.58
75555;BME280;66087;53.126;17.960;2023-06-10T04:17:49;101084.66;;;19.99;50.39
75555;BME280;66087;53.126;17.960;2023-06-10T04:20:17;101085.57;;;20.04;50.31
75555;BME280;66087;53.126;17.960;2023-06-10T04:22:45;101089.13;;;20.05;49.94
75555;BME280;66087;53.126;17.960;2023-06-10T04:25:12;101092.26;;;20.09;49.50
75555;BME280;66087;53.126;17.960;2023-06-10T04:27:39;101093.44;;;20.04;48.99
75555;BME280;66087;53.126;17.960;2023-06-10T04:30:06;101094.61;;;19.99;49.20
75555;BME280;66087;53.126;17.960;2023-06-10T04:32:35;101092.11;;;20.00;49.24
75555;BME280;66087;53.126;17.960;2023-06-10T04:35:02;101100.05;;;20.10;49.08
75555;BME280;66087;53.126;17.960;2023-06-10T04:37:30;101097.05;;;20.17;49.08
75555;BME280;66087;53.126;17.960;2023-06-10T04:39:59;101104.27;;;20.21;48.47
75555;BME280;66087;53.126;17.960;2023-06-10T04:42:27;101038.70;;;19.80;47.85
75555;BME280;66087;53.126;17.960;2023-06-10T04:45:35;101101.71;;;20.22;47.76
75555;BME280;66087;53.126;17.960;2023-06-10T04:48:31;101107.69;;;20.22;47.57
75555;BME280;66087;53.126;17.960;2023-06-10T04:51:09;101110.19;;;20.19;47.02
75555;BME280;66087;53.126;17.960;2023-06-10T04:53:44;101108.78;;;20.15;47.17
75555;BME280;66087;53.126;17.960;2023-06-10T04:56:18;101108.33;;;20.12;46.91
75555;BME280;66087;53.126;17.960;2023-06-10T04:58:49;101052.79;;;19.70;46.99
75555;BME280;66087;53.126;17.960;2023-06-10T05:01:19;101107.08;;;20.04;46.55
75555;BME280;66087;53.126;17.960;2023-06-10T05:03:48;101110.36;;;20.00;46.64
75555;BME280;66087;53.126;17.960;2023-06-10T05:06:15;101111.21;;;20.02;46.54
75555;BME280;66087;53.126;17.960;2023-06-10T05:08:47;101115.33;;;20.05;46.51
75555;BME280;66087;53.126;17.960;2023-06-10T05:11:24;101115.61;;;20.08;46.57
75555;BME280;66087;53.126;17.960;2023-06-10T05:13:50;101119.78;;;20.12;46.50
75555;BME280;66087;53.126;17.960;2023-06-10T05:16:21;101123.67;;;20.13;46.04
75555;BME280;66087;53.126;17.960;2023-06-10T05:18:50;101121.09;;;20.10;46.31
75555;BME280;66087;53.126;17.960;2023-06-10T05:21:18;101126.70;;;20.12;46.02
75555;BME280;66087;53.126;17.960;2023-06-10T05:24:00;101125.05;;;20.10;46.03
75555;BME280;66087;53.126;17.960;2023-06-10T05:26:36;101125.82;;;20.10;46.02
75555;BME280;66087;53.126;17.960;2023-06-10T05:29:09;101131.39;;;20.13;45.86
75555;BME280;66087;53.126;17.960;2023-06-10T05:31:51;101084.54;;;19.85;45.77
75555;BME280;66087;53.126;17.960;2023-06-10T05:34:17;101127.44;;;20.15;45.72
75555;BME280;66087;53.126;17.960;2023-06-10T05:36:48;101126.20;;;20.16;45.62
75555;BME280;66087;53.126;17.960;2023-06-10T05:39:18;101126.91;;;20.17;45.59
75555;BME280;66087;53.126;17.960;2023-06-10T05:41:46;101129.27;;;20.19;45.28
75555;BME280;66087;53.126;17.960;2023-06-10T05:44:13;101127.46;;;20.21;45.22
75555;BME280;66087;53.126;17.960;2023-06-10T05:46:40;101126.75;;;20.27;45.29
75555;BME280;66087;53.126;17.960;2023-06-10T05:49:07;101081.98;;;20.05;45.45
75555;BME280;66087;53.126;17.960;2023-06-10T05:51:35;101121.73;;;20.37;45.99
75555;BME280;66087;53.126;17.960;2023-06-10T05:54:06;101126.05;;;20.39;46.31
75555;BME280;66087;53.126;17.960;2023-06-10T05:56:35;101123.78;;;20.42;47.43
75555;BME280;66087;53.126;17.960;2023-06-10T05:59:03;101120.02;;;20.43;47.10
75555;BME280;66087;53.126;17.960;2023-06-10T06:01:36;101083.55;;;20.19;48.21
75555;BME280;66087;53.126;17.960;2023-06-10T06:04:25;101094.05;;;20.31;48.44
75555;BME280;66087;53.126;17.960;2023-06-10T06:06:54;101121.45;;;20.51;47.84
75555;BME280;66087;53.126;17.960;2023-06-10T06:09:30;101072.63;;;20.12;47.63
75555;BME280;66087;53.126;17.960;2023-06-10T06:12:02;101119.38;;;20.40;47.81
75555;BME280;66087;53.126;17.960;2023-06-10T06:14:38;101077.39;;;20.01;48.15
75555;BME280;66087;53.126;17.960;2023-06-10T06:17:17;101128.16;;;20.29;48.23
75555;BME280;66087;53.126;17.960;2023-06-10T06:19:57;101128.04;;;20.26;48.50
75555;BME280;66087;53.126;17.960;2023-06-10T06:22:26;101125.98;;;20.29;48.95
75555;BME280;66087;53.126;17.960;2023-06-10T06:25:00;101130.00;;;20.36;49.06
75555;BME280;66087;53.126;17.960;2023-06-10T06:27:28;101130.14;;;20.41;49.13
75555;BME280;66087;53.126;17.960;2023-06-10T06:29:56;101097.41;;;20.23;48.75
75555;BME280;66087;53.126;17.960;2023-06-10T06:32:26;101136.77;;;20.65;48.23
75555;BME280;66087;53.126;17.960;2023-06-10T06:35:02;101138.56;;;20.84;48.10
75555;BME280;66087;53.126;17.960;2023-06-10T06:37:31;101139.89;;;21.07;47.96
75555;BME280;66087;53.126;17.960;2023-06-10T06:40:07;101139.86;;;21.26;47.84
75555;BME280;66087;53.126;17.960;2023-06-10T06:42:51;101141.98;;;21.41;47.65
75555;BME280;66087;53.126;17.960;2023-06-10T06:45:26;101144.21;;;21.59;47.22
75555;BME280;66087;53.126;17.960;2023-06-10T06:47:53;101145.76;;;21.80;47.39
75555;BME280;66087;53.126;17.960;2023-06-10T06:50:25;101146.67;;;22.11;46.70
75555;BME280;66087;53.126;17.960;2023-06-10T06:52:55;101143.45;;;22.45;45.69
75555;BME280;66087;53.126;17.960;2023-06-10T06:55:22;101147.11;;;22.65;44.60
75555;BME280;66087;53.126;17.960;2023-06-10T06:57:49;101151.92;;;22.81;44.75
75555;BME280;66087;53.126;17.960;2023-06-10T07:00:17;101153.77;;;22.97;44.33
75555;BME280;66087;53.126;17.960;2023-06-10T07:02:43;101156.72;;;23.13;44.11
75555;BME280;66087;53.126;17.960;2023-06-10T07:05:24;101157.03;;;23.24;43.00
75555;BME280;66087;53.126;17.960;2023-06-10T07:08:03;101159.97;;;23.37;42.55
75555;BME280;66087;53.126;17.960;2023-06-10T07:10:32;101154.30;;;23.47;42.60
75555;BME280;66087;53.126;17.960;2023-06-10T07:13:15;101156.30;;;23.63;42.04
75555;BME280;66087;53.126;17.960;2023-06-10T07:16:31;101156.27;;;23.81;41.03
75555;BME280;66087;53.126;17.960;2023-06-10T07:19:00;101160.34;;;23.86;40.02
75555;BME280;66087;53.126;17.960;2023-06-10T07:21:33;101160.95;;;23.76;39.04
75555;BME280;66087;53.126;17.960;2023-06-10T07:24:05;101160.81;;;23.68;39.38
75555;BME280;66087;53.126;17.960;2023-06-10T07:26:35;101160.55;;;23.66;39.43
75555;BME280;66087;53.126;17.960;2023-06-10T07:29:35;101164.23;;;23.63;39.51
75555;BME280;66087;53.126;17.960;2023-06-10T07:32:49;101164.02;;;23.61;40.03
75555;BME280;66087;53.126;17.960;2023-06-10T07:35:30;101150.02;;;23.52;40.26
75555;BME280;66087;53.126;17.960;2023-06-10T07:38:03;101163.85;;;23.61;39.96
75555;BME280;66087;53.126;17.960;2023-06-10T07:40:34;101162.49;;;23.57;39.87
75555;BME280;66087;53.126;17.960;2023-06-10T07:43:24;101165.00;;;23.51;39.64
75555;BME280;66087;53.126;17.960;2023-06-10T07:46:06;101169.83;;;23.46;39.98
75555;BME280;66087;53.126;17.960;2023-06-10T07:48:33;101171.88;;;23.49;40.10
75555;BME280;66087;53.126;17.960;2023-06-10T07:50:59;101137.17;;;23.28;39.95
75555;BME280;66087;53.126;17.960;2023-06-10T07:53:26;101167.17;;;23.52;40.20
75555;BME280;66087;53.126;17.960;2023-06-10T07:55:53;101169.17;;;23.59;40.08
75555;BME280;66087;53.126;17.960;2023-06-10T07:58:20;101173.23;;;23.65;40.16
75555;BME280;66087;53.126;17.960;2023-06-10T08:00:49;101171.15;;;23.71;40.19
75555;BME280;66087;53.126;17.960;2023-06-10T08:03:19;101176.76;;;23.77;40.20
75555;BME280;66087;53.126;17.960;2023-06-10T08:05:49;101173.99;;;23.78;39.58
75555;BME280;66087;53.126;17.960;2023-06-10T08:08:16;101176.17;;;23.73;39.76
75555;BME280;66087;53.126;17.960;2023-06-10T08:10:45;101179.59;;;23.72;39.39
75555;BME280;66087;53.126;17.960;2023-06-10T08:13:13;101180.65;;;23.71;39.50
75555;BME280;66087;53.126;17.960;2023-06-10T08:16:11;101177.02;;;23.72;39.33
75555;BME280;66087;53.126;17.960;2023-06-10T08:18:46;101177.38;;;23.77;38.88
75555;BME280;66087;53.126;17.960;2023-06-10T08:21:12;101179.19;;;23.85;38.66
75555;BME280;66087;53.126;17.960;2023-06-10T08:23:39;101178.94;;;23.94;38.86
75555;BME280;66087;53.126;17.960;2023-06-10T08:26:06;101184.56;;;24.05;39.25
75555;BME280;66087;53.126;17.960;2023-06-10T08:28:33;101184.64;;;24.14;38.85
75555;BME280;66087;53.126;17.960;2023-06-10T08:31:01;101183.49;;;24.21;38.87
75555;BME280;66087;53.126;17.960;2023-06-10T08:33:36;101183.98;;;24.23;38.61
75555;BME280;66087;53.126;17.960;2023-06-10T08:36:03;101185.35;;;24.24;38.77
75555;BME280;66087;53.126;17.960;2023-06-10T08:38:45;101183.76;;;24.32;38.85
75555;BME280;66087;53.126;17.960;2023-06-10T08:41:28;101158.94;;;24.26;38.59
75555;BME280;66087;53.126;17.960;2023-06-10T08:44:27;101183.06;;;24.51;38.11
75555;BME280;66087;53.126;17.960;2023-06-10T08:50:08;101191.30;;;24.55;37.42
75555;BME280;66087;53.126;17.960;2023-06-10T08:52:53;101189.64;;;24.56;37.14
75555;BME280;66087;53.126;17.960;2023-06-10T08:55:35;101188.29;;;24.56;37.49
75555;BME280;66087;53.126;17.960;2023-06-10T08:58:03;101189.41;;;24.57;37.29
75555;BME280;66087;53.126;17.960;2023-06-10T09:00:31;101183.11;;;24.60;37.49
75555;BME280;66087;53.126;17.960;2023-06-10T09:02:59;101183.65;;;24.65;36.68
75555;BME280;66087;53.126;17.960;2023-06-10T09:05:27;101181.53;;;24.65;36.22
75555;BME280;66087;53.126;17.960;2023-06-10T09:07:58;101188.88;;;24.66;35.96
75555;BME280;66087;53.126;17.960;2023-06-10T09:10:29;101185.86;;;24.69;35.79
75555;BME280;66087;53.126;17.960;2023-06-10T09:12:57;101186.85;;;24.71;36.30
75555;BME280;66087;53.126;17.960;2023-06-10T09:15:29;101184.66;;;24.77;35.78
75555;BME280;66087;53.126;17.960;2023-06-10T09:18:29;101188.67;;;24.79;34.85
75555;BME280;66087;53.126;17.960;2023-06-10T09:21:10;101157.58;;;24.60;34.36
75555;BME280;66087;53.126;17.960;2023-06-10T09:24:18;101192.28;;;24.80;34.47
75555;BME280;66087;53.126;17.960;2023-06-10T09:27:07;101191.36;;;24.80;34.92
75555;BME280;66087;53.126;17.960;2023-06-10T09:29:58;101184.36;;;24.87;35.20
75555;BME280;66087;53.126;17.960;2023-06-10T09:32:39;101186.77;;;24.92;35.03
75555;BME280;66087;53.126;17.960;2023-06-10T09:35:32;101170.91;;;24.81;34.75
75555;BME280;66087;53.126;17.960;2023-06-10T09:38:33;101188.67;;;25.03;35.21
75555;BME280;66087;53.126;17.960;2023-06-10T09:41:39;101189.13;;;25.09;34.90
75555;BME280;66087;53.126;17.960;2023-06-10T09:44:25;101187.77;;;25.10;33.97
75555;BME280;66087;53.126;17.960;2023-06-10T09:47:08;101183.30;;;25.10;34.42
75555;BME280;66087;53.126;17.960;2023-06-10T09:50:06;101186.27;;;25.13;34.53
75555;BME280;66087;53.126;17.960;2023-06-10T09:52:48;101187.69;;;25.22;34.42
75555;BME280;66087;53.126;17.960;2023-06-10T09:56:01;101190.00;;;25.30;33.21
75555;BME280;66087;53.126;17.960;2023-06-10T09:58:42;101191.33;;;25.39;33.34
75555;BME280;66087;53.126;17.960;2023-06-10T10:01:17;101190.95;;;25.46;33.50
75555;BME280;66087;53.126;17.960;2023-06-10T10:04:05;101186.86;;;25.47;32.61
75555;BME280;66087;53.126;17.960;2023-06-10T10:06:49;101193.34;;;25.48;31.29
75555;BME280;66087;53.126;17.960;2023-06-10T10:09:16;101187.02;;;25.48;29.81
75555;BME280;66087;53.126;17.960;2023-06-10T10:12:10;101143.77;;;25.14;30.21
75555;BME280;66087;53.126;17.960;2023-06-10T10:15:24;101185.77;;;25.54;30.36
75555;BME280;66087;53.126;17.960;2023-06-10T10:17:58;101188.45;;;25.57;30.58
75555;BME280;66087;53.126;17.960;2023-06-10T10:20:34;101177.56;;;25.55;31.05
75555;BME280;66087;53.126;17.960;2023-06-10T10:26:43;101198.86;;;25.73;31.42
75555;BME280;66087;53.126;17.960;2023-06-10T10:29:35;101198.79;;;25.80;30.81
75555;BME280;66087;53.126;17.960;2023-06-10T10:33:31;101195.41;;;25.85;30.65
75555;BME280;66087;53.126;17.960;2023-06-10T10:36:28;101134.03;;;25.58;30.70
75555;BME280;66087;53.126;17.960;2023-06-10T10:39:11;101190.09;;;26.09;30.69
75555;BME280;66087;53.126;17.960;2023-06-10T10:42:03;101189.63;;;26.25;31.06
75555;BME280;66087;53.126;17.960;2023-06-10T10:45:16;101191.05;;;26.36;30.14
75555;BME280;66087;53.126;17.960;2023-06-10T10:48:40;101142.90;;;26.10;30.37
75555;BME280;66087;53.126;17.960;2023-06-10T10:51:22;101182.44;;;26.45;30.21
75555;BME280;66087;53.126;17.960;2023-06-10T10:54:53;101181.79;;;26.46;29.27
75555;BME280;66087;53.126;17.960;2023-06-10T11:00:58;101183.56;;;26.48;28.84
75555;BME280;66087;53.126;17.960;2023-06-10T11:03:56;101181.63;;;26.37;28.04
75555;BME280;66087;53.126;17.960;2023-06-10T11:07:35;101189.33;;;26.44;28.48
75555;BME280;66087;53.126;17.960;2023-06-10T11:10:11;101150.23;;;26.31;27.66
75555;BME280;66087;53.126;17.960;2023-06-10T11:12:53;101178.55;;;26.59;26.96
75555;BME280;66087;53.126;17.960;2023-06-10T11:15:24;101177.78;;;26.74;27.50
75555;BME280;66087;53.126;17.960;2023-06-10T11:18:15;101178.14;;;26.94;27.07
75555;BME280;66087;53.126;17.960;2023-06-10T11:21:23;101175.08;;;27.03;26.49
75555;BME280;66087;53.126;17.960;2023-06-10T11:27:37;101183.00;;;27.11;26.21
75555;BME280;66087;53.126;17.960;2023-06-10T11:31:21;101176.95;;;27.14;25.96
75555;BME280;66087;53.126;17.960;2023-06-10T11:35:53;101178.40;;;27.22;25.19
75555;BME280;66087;53.126;17.960;2023-06-10T11:38:43;101178.62;;;27.33;24.57
75555;BME280;66087;53.126;17.960;2023-06-10T11:41:11;101178.60;;;27.40;23.67
75555;BME280;66087;53.126;17.960;2023-06-10T11:44:09;101172.09;;;27.51;24.03
75555;BME280;66087;53.126;17.960;2023-06-10T11:46:45;101170.12;;;27.63;23.95
75555;BME280;66087;53.126;17.960;2023-06-10T11:52:57;101156.42;;;27.77;23.91
75555;BME280;66087;53.126;17.960;2023-06-10T11:55:47;101170.14;;;27.99;23.50
75555;BME280;66087;53.126;17.960;2023-06-10T11:58:20;101168.11;;;28.08;23.22
75555;BME280;66087;53.126;17.960;2023-06-10T12:01:56;101181.39;;;28.08;23.39
75555;BME280;66087;53.126;17.960;2023-06-10T12:04:46;101168.51;;;28.12;23.39
75555;BME280;66087;53.126;17.960;2023-06-10T12:07:19;101171.02;;;28.18;22.87
75555;BME280;66087;53.126;17.960;2023-06-10T12:09:46;101168.55;;;28.31;23.15
75555;BME280;66087;53.126;17.960;2023-06-10T12:12:14;101165.65;;;28.42;22.96
75555;BME280;66087;53.126;17.960;2023-06-10T12:15:00;101165.27;;;28.58;23.14
75555;BME280;66087;53.126;17.960;2023-06-10T12:17:37;101167.07;;;28.72;23.08
75555;BME280;66087;53.126;17.960;2023-06-10T12:20:06;101168.41;;;28.81;22.40
75555;BME280;66087;53.126;17.960;2023-06-10T12:22:37;101161.21;;;28.82;22.19
75555;BME280;66087;53.126;17.960;2023-06-10T12:25:09;101165.02;;;28.87;22.42
75555;BME280;66087;53.126;17.960;2023-06-10T12:27:37;101157.39;;;28.89;22.36
75555;BME280;66087;53.126;17.960;2023-06-10T12:30:09;101156.48;;;29.03;22.57
75555;BME280;66087;53.126;17.960;2023-06-10T12:32:42;101155.46;;;29.17;21.57
75555;BME280;66087;53.126;17.960;2023-06-10T12:35:12;101153.86;;;29.24;21.29
75555;BME280;66087;53.126;17.960;2023-06-10T12:37:40;101155.85;;;29.34;21.14
75555;BME280;66087;53.126;17.960;2023-06-10T12:40:08;101152.65;;;29.46;20.89
75555;BME280;66087;53.126;17.960;2023-06-10T12:42:36;101155.76;;;30.47;20.19
75555;BME280;66087;53.126;17.960;2023-06-10T12:45:05;101156.84;;;31.73;19.40
75555;BME280;66087;53.126;17.960;2023-06-10T12:47:37;101155.48;;;32.70;18.44
75555;BME280;66087;53.126;17.960;2023-06-10T12:50:07;101156.15;;;33.56;18.09
75555;BME280;66087;53.126;17.960;2023-06-10T12:52:35;101149.13;;;34.12;16.91
75555;BME280;66087;53.126;17.960;2023-06-10T12:55:07;101135.05;;;34.65;16.74
75555;BME280;66087;53.126;17.960;2023-06-10T12:57:48;101155.23;;;35.37;15.52
75555;BME280;66087;53.126;17.960;2023-06-10T13:00:20;101151.36;;;35.71;14.40
75555;BME280;66087;53.126;17.960;2023-06-10T13:02:59;101155.16;;;36.19;14.65
75555;BME280;66087;53.126;17.960;2023-06-10T13:05:29;101149.39;;;36.61;14.00
75555;BME280;66087;53.126;17.960;2023-06-10T13:07:59;101147.96;;;37.00;12.68
75555;BME280;66087;53.126;17.960;2023-06-10T13:10:28;101144.50;;;37.14;12.59
75555;BME280;66087;53.126;17.960;2023-06-10T13:13:21;101149.28;;;37.60;12.84
75555;BME280;66087;53.126;17.960;2023-06-10T13:17:13;101148.30;;;37.64;12.01
75555;BME280;66087;53.126;17.960;2023-06-10T13:20:33;101142.20;;;38.05;11.81
75555;BME280;66087;53.126;17.960;2023-06-10T13:24:14;101140.68;;;38.64;11.29
75555;BME280;66087;53.126;17.960;2023-06-10T13:26:45;101141.23;;;39.01;11.24
75555;BME280;66087;53.126;17.960;2023-06-10T13:29:17;101138.80;;;39.41;10.81
75555;BME280;66087;53.126;17.960;2023-06-10T13:32:49;101131.02;;;39.73;10.91
75555;BME280;66087;53.126;17.960;2023-06-10T13:39:15;101141.41;;;40.11;10.43
75555;BME280;66087;53.126;17.960;2023-06-10T13:42:11;101136.19;;;40.61;9.72
75555;BME280;66087;53.126;17.960;2023-06-10T13:45:12;101129.94;;;41.01;9.79
75555;BME280;66087;53.126;17.960;2023-06-10T13:48:26;101129.45;;;41.37;9.98
75555;BME280;66087;53.126;17.960;2023-06-10T13:51:03;101125.08;;;41.58;9.54
75555;BME280;66087;53.126;17.960;2023-06-10T13:53:54;101128.92;;;41.85;9.68
75555;BME280;66087;53.126;17.960;2023-06-10T13:56:35;101123.28;;;42.18;9.70